Time;durP1;ratioP1;P1;durP2;ratioP2;P2;SDS_P1;SDS_P2;PMS_P1;PMS_P2;Temp;Humidity;BMP_temperature;BMP_pressure;BME280_temperature;BME280_humidity;BME280_pressure;Samples;Min_cycle;Max_cycle;Signal;HPM_P1;HPM_P2
2020/12/29 00:01:49;;;;;;;31.52;19.80;;;1.90;89.90;;;;;;5071236;28;20029;-75
2020/12/29 00:04:20;;;;;;;33.13;21.02;;;1.80;89.70;;;;;;5032976;28;20044;-75
2020/12/29 00:06:54;;;;;;;28.27;15.80;;;1.90;89.80;;;;;;5033024;28;20100;-74
2020/12/29 00:09:21;;;;;;;33.63;20.65;;;1.90;89.90;;;;;;5032508;28;20496;-74
2020/12/29 00:11:48;;;;;;;38.10;21.92;;;1.80;89.90;;;;;;5032181;28;20102;-74
2020/12/29 00:14:14;;;;;;;35.53;21.77;;;1.80;90.10;;;;;;4998723;28;20032;-74
2020/12/29 00:16:40;;;;;;;32.15;21.33;;;1.90;90.20;;;;;;5031547;28;20053;-75
2020/12/29 00:19:27;;;;;;;36.90;23.20;;;1.80;90.50;;;;;;5032758;28;20030;-75
2020/12/29 00:21:53;;;;;;;38.63;24.40;;;1.80;90.80;;;;;;5032587;28;20047;-75
2020/12/29 00:24:18;;;;;;;40.45;24.55;;;1.90;90.80;;;;;;5032627;28;20546;-75
2020/12/29 00:26:44;;;;;;;36.38;23.23;;;1.90;90.50;;;;;;5032687;28;20105;-75
2020/12/29 00:29:10;;;;;;;32.60;20.55;;;2.00;90.30;;;;;;5032523;28;20037;-75
2020/12/29 00:31:36;;;;;;;37.15;23.15;;;2.00;90.10;;;;;;5040224;28;20040;-75
2020/12/29 00:34:02;;;;;;;37.40;23.38;;;2.00;90.00;;;;;;5052265;28;20552;-74
2020/12/29 00:36:29;;;;;;;37.03;23.17;;;2.00;90.20;;;;;;5052428;28;20021;-74
2020/12/29 00:38:55;;;;;;;34.10;20.98;;;2.00;90.00;;;;;;5034464;28;20115;-74
2020/12/29 00:41:21;;;;;;;33.33;21.08;;;2.00;89.90;;;;;;5052437;28;20434;-74
2020/12/29 00:43:47;;;;;;;35.58;21.77;;;2.10;89.90;;;;;;5069414;28;20035;-74
2020/12/29 00:46:15;;;;;;;32.15;20.42;;;2.10;89.80;;;;;;5072320;28;20475;-75
2020/12/29 00:48:41;;;;;;;38.15;22.08;;;2.10;89.40;;;;;;5072268;28;20028;-75
2020/12/29 00:51:18;;;;;;;33.15;21.80;;;2.20;89.30;;;;;;5068915;28;20043;-74
2020/12/29 00:53:44;;;;;;;33.15;20.98;;;2.20;89.20;;;;;;5052200;28;20058;-73
2020/12/29 00:56:10;;;;;;;32.50;19.60;;;2.10;89.10;;;;;;5052156;28;20091;-74
2020/12/29 00:58:37;;;;;;;30.45;19.92;;;2.30;89.10;;;;;;5052074;28;20546;-75
2020/12/29 01:01:08;;;;;;;30.45;19.55;;;2.20;89.00;;;;;;5043488;22;20051;-74
2020/12/29 01:03:34;;;;;;;30.23;19.20;;;2.30;89.00;;;;;;5054076;28;20123;-75
2020/12/29 01:06:00;;;;;;;32.22;19.63;;;2.30;88.80;;;;;;5072023;28;20086;-74
2020/12/29 01:08:26;;;;;;;28.33;17.65;;;2.30;88.60;;;;;;5072397;28;20028;-74
2020/12/29 01:10:53;;;;;;;28.83;18.25;;;2.30;88.40;;;;;;5072100;28;20559;-75
2020/12/29 01:13:19;;;;;;;31.48;18.70;;;2.30;88.50;;;;;;5072036;28;20036;-75
2020/12/29 01:15:46;;;;;;;28.70;17.33;;;2.30;88.70;;;;;;5071919;28;20048;-75
2020/12/29 01:18:11;;;;;;;29.02;18.73;;;2.30;88.40;;;;;;5072039;28;20029;-75
2020/12/29 01:20:37;;;;;;;30.80;18.92;;;2.30;88.60;;;;;;5071950;28;20020;-74
2020/12/29 01:23:03;;;;;;;26.15;17.17;;;2.30;88.70;;;;;;5066833;28;20456;-74
2020/12/29 01:25:29;;;;;;;26.90;17.38;;;2.30;88.70;;;;;;5074880;28;20025;-75
2020/12/29 01:27:55;;;;;;;28.95;18.42;;;2.30;88.10;;;;;;5075574;28;20154;-74
2020/12/29 01:30:21;;;;;;;26.00;16.75;;;2.30;87.90;;;;;;5075704;28;20024;-74
2020/12/29 01:32:46;;;;;;;26.05;17.63;;;2.10;87.90;;;;;;5075647;28;20035;-74
2020/12/29 01:35:13;;;;;;;29.23;17.83;;;2.00;88.50;;;;;;5075643;28;20016;-74
2020/12/29 01:37:44;;;;;;;30.15;18.00;;;1.90;88.80;;;;;;5075501;28;20028;-75
2020/12/29 01:40:13;;;;;;;23.23;13.68;;;1.80;89.20;;;;;;5075752;28;20055;-75
2020/12/29 01:42:39;;;;;;;29.23;18.27;;;1.60;89.40;;;;;;5075322;28;20031;-75
2020/12/29 01:45:13;;;;;;;30.83;19.27;;;1.50;89.80;;;;;;5075474;28;20012;-74
2020/12/29 01:47:41;;;;;;;31.80;19.88;;;1.30;90.00;;;;;;5075603;28;20020;-74
2020/12/29 01:50:15;;;;;;;37.70;21.20;;;1.20;90.40;;;;;;5064644;28;20029;-74
2020/12/29 01:52:41;;;;;;;32.28;19.27;;;1.10;90.90;;;;;;5055160;28;20036;-74
2020/12/29 01:55:08;;;;;;;35.60;20.45;;;1.00;91.00;;;;;;5055004;28;20021;-74
2020/12/29 01:57:35;;;;;;;34.42;21.38;;;0.90;91.10;;;;;;5055016;28;20083;-74
2020/12/29 02:00:05;;;;;;;33.30;19.13;;;0.90;91.40;;;;;;5054977;28;20021;-74
2020/12/29 02:02:31;;;;;;;30.10;18.92;;;0.90;91.40;;;;;;5054714;28;20037;-74
2020/12/29 02:04:57;;;;;;;33.08;20.08;;;0.90;91.50;;;;;;5054848;28;20079;-74
2020/12/29 02:07:23;;;;;;;31.88;20.08;;;0.90;91.40;;;;;;5054857;28;20025;-74
2020/12/29 02:09:49;;;;;;;30.98;18.58;;;0.90;91.20;;;;;;5054838;28;20092;-74
2020/12/29 02:12:35;;;;;;;34.35;19.25;;;0.90;91.10;;;;;;5054921;28;20033;-74
2020/12/29 02:15:05;;;;;;;31.20;17.35;;;0.90;91.10;;;;;;5054997;28;20409;-74
2020/12/29 02:17:31;;;;;;;31.10;17.75;;;0.80;91.10;;;;;;5037077;28;20029;-74
2020/12/29 02:19:57;;;;;;;29.30;18.00;;;0.80;91.20;;;;;;5054838;28;20059;-75
2020/12/29 02:22:25;;;;;;;32.17;18.13;;;0.80;91.10;;;;;;5054864;28;20025;-75
2020/12/29 02:24:52;;;;;;;29.83;17.60;;;0.80;91.20;;;;;;5036746;28;20025;-74
2020/12/29 02:27:19;;;;;;;27.23;16.02;;;0.80;91.10;;;;;;5054670;28;20028;-73
2020/12/29 02:29:44;;;;;;;27.95;16.42;;;0.70;91.00;;;;;;5054546;28;20185;-74
2020/12/29 02:32:11;;;;;;;27.73;16.90;;;0.60;91.00;;;;;;5054472;28;20479;-74
2020/12/29 02:34:37;;;;;;;27.25;14.98;;;0.60;91.40;;;;;;5054479;28;20027;-73
2020/12/29 02:37:11;;;;;;;27.45;15.52;;;0.60;91.40;;;;;;5054678;28;20025;-73
2020/12/29 02:39:43;;;;;;;25.90;14.15;;;0.60;91.40;;;;;;5054642;28;20104;-74
2020/12/29 02:42:09;;;;;;;;;;;0.60;91.50;;;;;;5054859;28;20035;-73
2020/12/29 02:44:35;;;;;;;26.95;16.23;;;0.60;91.20;;;;;;5054354;28;19912;-73
2020/12/29 02:47:02;;;;;;;23.73;13.02;;;0.70;91.20;;;;;;5054286;28;20024;-74
2020/12/29 02:49:27;;;;;;;22.77;14.05;;;0.70;91.10;;;;;;5054254;28;20051;-73
2020/12/29 02:51:56;;;;;;;25.80;14.95;;;0.60;90.90;;;;;;5054000;28;20427;-74
2020/12/29 02:54:23;;;;;;;24.90;13.63;;;0.50;91.20;;;;;;5054143;28;20036;-74
2020/12/29 02:56:49;;;;;;;20.38;12.85;;;0.50;91.20;;;;;;5054351;28;20025;-74
2020/12/29 02:59:14;;;;;;;23.63;13.95;;;0.50;91.30;;;;;;5054369;28;20025;-74
2020/12/29 03:01:40;;;;;;;24.65;12.65;;;0.40;91.20;;;;;;5032553;28;20502;-74
2020/12/29 03:04:05;;;;;;;24.35;13.23;;;0.40;91.30;;;;;;5033869;28;20033;-75
2020/12/29 03:06:31;;;;;;;24.15;14.02;;;0.40;91.40;;;;;;5033999;28;20028;-74
2020/12/29 03:08:57;;;;;;;23.50;14.13;;;0.40;91.40;;;;;;5032665;28;20099;-75
2020/12/29 03:11:28;;;;;;;26.50;15.48;;;0.40;91.30;;;;;;5033761;28;20384;-75
2020/12/29 03:14:06;;;;;;;21.20;12.45;;;0.40;91.30;;;;;;5033776;28;20033;-74
2020/12/29 03:16:32;;;;;;;23.85;13.75;;;0.30;91.20;;;;;;5034079;28;20025;-74
2020/12/29 03:19:01;;;;;;;21.17;13.27;;;0.20;91.30;;;;;;5033687;28;20522;-75
2020/12/29 03:21:26;;;;;;;19.92;12.13;;;0.30;91.30;;;;;;5033668;28;20033;-74
2020/12/29 03:23:52;;;;;;;22.13;12.95;;;0.20;91.40;;;;;;5028650;28;20026;-74
2020/12/29 03:26:18;;;;;;;23.67;12.73;;;0.10;91.50;;;;;;5033615;28;20025;-74
2020/12/29 03:28:44;;;;;;;21.17;11.50;;;0.10;91.50;;;;;;5032223;28;20476;-74
2020/12/29 03:31:10;;;;;;;22.90;13.57;;;0.00;91.50;;;;;;5033480;28;20025;-74
2020/12/29 03:33:35;;;;;;;21.92;12.43;;;0.00;91.70;;;;;;5032127;28;20099;-75
2020/12/29 03:36:02;;;;;;;20.23;11.88;;;0.00;91.80;;;;;;5033315;28;20380;-74
2020/12/29 03:38:28;;;;;;;22.48;13.10;;;0.00;91.80;;;;;;5033359;28;20026;-74
2020/12/29 03:40:54;;;;;;;21.40;12.52;;;0.00;91.90;;;;;;5033351;28;20050;-74
2020/12/29 03:43:21;;;;;;;22.33;13.50;;;0.00;91.80;;;;;;5031936;28;20049;-74
2020/12/29 03:45:48;;;;;;;22.55;13.63;;;0.00;91.90;;;;;;5033071;28;20496;-75
2020/12/29 03:48:16;;;;;;;25.00;13.85;;;-3276.70;92.00;;;;;;5032847;28;20030;-75
2020/12/29 03:50:42;;;;;;;21.55;12.68;;;-3276.70;92.20;;;;;;5033076;28;20032;-74
2020/12/29 03:53:09;;;;;;;23.88;12.98;;;-3276.70;92.20;;;;;;5031768;28;20167;-74
2020/12/29 03:55:36;;;;;;;23.15;12.23;;;-3276.70;92.20;;;;;;5032897;28;20484;-74
2020/12/29 03:58:02;;;;;;;20.58;10.77;;;-3276.60;92.20;;;;;;5033091;28;20029;-74
2020/12/29 04:00:28;;;;;;;18.02;10.85;;;-3276.70;92.30;;;;;;5033254;28;20021;-74
2020/12/29 04:02:54;;;;;;;19.52;11.52;;;-3276.70;92.20;;;;;;5049980;28;20037;-73
2020/12/29 04:05:19;;;;;;;22.50;12.50;;;-3276.60;92.20;;;;;;5052833;28;20017;-74
2020/12/29 04:07:46;;;;;;;26.85;13.32;;;-3276.60;92.30;;;;;;5052614;28;20096;-74
2020/12/29 04:10:12;;;;;;;26.98;14.55;;;-3276.60;92.20;;;;;;5052699;28;20096;-74
2020/12/29 04:12:38;;;;;;;30.05;16.05;;;-3276.60;92.50;;;;;;5052588;28;20045;-74
2020/12/29 04:15:08;;;;;;;31.83;16.75;;;-3276.60;92.80;;;;;;5034877;28;20408;-74
2020/12/29 04:17:37;;;;;;;27.00;14.45;;;-3276.70;92.70;;;;;;5052462;28;20060;-74
2020/12/29 04:20:05;;;;;;;28.08;15.68;;;-3276.70;92.30;;;;;;5034598;28;20555;-74
2020/12/29 04:22:31;;;;;;;27.92;15.90;;;-3276.70;92.10;;;;;;5052815;28;20024;-74
2020/12/29 04:24:58;;;;;;;33.67;18.17;;;-3276.70;92.00;;;;;;5052493;28;20028;-74
2020/12/29 04:27:24;;;;;;;37.20;20.45;;;0.00;92.10;;;;;;5052548;28;20159;-74
2020/12/29 04:29:50;;;;;;;35.80;19.35;;;0.00;92.00;;;;;;5051888;28;20108;-74
2020/12/29 04:32:16;;;;;;;36.90;19.73;;;0.00;91.80;;;;;;5052573;28;20037;-74
2020/12/29 04:34:43;;;;;;;40.03;20.30;;;0.00;91.80;;;;;;5052749;28;20483;-74
2020/12/29 04:37:08;;;;;;;39.88;20.90;;;0.00;92.00;;;;;;5034460;28;20029;-74
2020/12/29 04:39:34;;;;;;;35.03;18.13;;;0.00;91.90;;;;;;5052483;28;20028;-75
2020/12/29 04:42:03;;;;;;;36.72;19.55;;;0.00;91.80;;;;;;5034304;28;20086;-75
2020/12/29 04:44:30;;;;;;;33.20;18.90;;;0.00;91.60;;;;;;5034430;28;20024;-75
2020/12/29 04:46:56;;;;;;;41.80;20.65;;;0.00;91.60;;;;;;5052113;28;20082;-74
2020/12/29 04:49:25;;;;;;;34.22;17.58;;;-3276.70;91.70;;;;;;5052293;28;20021;-74
2020/12/29 04:51:51;;;;;;;36.13;19.73;;;0.00;91.60;;;;;;5033994;28;20483;-75
2020/12/29 04:54:18;;;;;;;28.33;16.60;;;0.00;91.20;;;;;;5017938;28;20099;-75
2020/12/29 04:56:55;;;;;;;35.33;18.90;;;0.00;91.10;;;;;;5034385;28;20083;-74
2020/12/29 04:59:21;;;;;;;33.25;18.35;;;0.00;91.00;;;;;;5053351;28;20032;-75
2020/12/29 05:01:47;;;;;;;38.42;21.63;;;-3276.70;91.10;;;;;;5055900;28;20041;-75
2020/12/29 05:04:13;;;;;;;40.50;22.70;;;-3276.70;91.80;;;;;;5056158;28;20036;-75
2020/12/29 05:06:42;;;;;;;42.05;23.05;;;0.00;91.80;;;;;;5056126;28;20060;-75
2020/12/29 05:09:08;;;;;;;41.30;21.77;;;0.00;91.70;;;;;;5056156;28;20020;-74
2020/12/29 05:11:35;;;;;;;42.22;22.95;;;0.00;91.60;;;;;;5055934;28;20033;-74
2020/12/29 05:14:04;;;;;;;42.88;23.52;;;0.00;91.60;;;;;;5055922;28;20078;-75
2020/12/29 05:16:34;;;;;;;43.83;22.17;;;0.00;91.90;;;;;;5055942;28;20061;-74
2020/12/29 05:19:08;;;;;;;40.58;21.75;;;0.00;91.70;;;;;;5055868;28;20037;-74
2020/12/29 05:21:36;;;;;;;40.55;22.75;;;0.00;91.40;;;;;;5055764;28;20021;-74
2020/12/29 05:24:10;;;;;;;43.00;22.17;;;0.00;91.40;;;;;;5050536;28;20029;-73
2020/12/29 05:26:37;;;;;;;43.65;23.45;;;0.00;91.30;;;;;;5055922;28;20384;-73
2020/12/29 05:29:08;;;;;;;42.33;22.92;;;0.00;91.50;;;;;;5037786;28;20381;-73
2020/12/29 05:31:36;;;;;;;39.72;21.30;;;-3276.70;91.30;;;;;;5038293;28;20399;-73
2020/12/29 05:34:02;;;;;;;38.28;21.23;;;-3276.70;91.40;;;;;;5055789;28;20082;-74
2020/12/29 05:36:33;;;;;;;40.05;22.50;;;-3276.70;91.40;;;;;;5055957;28;20029;-73
2020/12/29 05:39:06;;;;;;;40.20;22.27;;;-3276.60;91.40;;;;;;5056019;28;20036;-74
2020/12/29 05:41:42;;;;;;;40.90;23.17;;;-3276.60;91.50;;;;;;5055631;28;20116;-73
2020/12/29 05:44:10;;;;;;;43.10;21.65;;;-3276.60;91.60;;;;;;5035411;28;20441;-74
2020/12/29 05:46:36;;;;;;;42.83;22.15;;;-3276.60;91.70;;;;;;5035540;28;20021;-74
2020/12/29 05:49:03;;;;;;;36.25;20.75;;;-3276.60;91.70;;;;;;5017885;28;20022;-74
2020/12/29 05:51:29;;;;;;;44.90;23.17;;;-3276.60;91.50;;;;;;5035211;28;20029;-73
2020/12/29 05:54:03;;;;;;;40.55;21.00;;;-3276.70;91.60;;;;;;5035400;28;20033;-73
2020/12/29 05:56:31;;;;;;;39.22;20.40;;;-3276.70;91.10;;;;;;5035122;28;20028;-74
2020/12/29 05:58:57;;;;;;;37.65;18.85;;;0.00;91.00;;;;;;5035481;28;20030;-74
2020/12/29 06:01:26;;;;;;;33.75;17.70;;;-3276.70;90.60;;;;;;5034801;28;20140;-73
2020/12/29 06:03:51;;;;;;;37.53;19.98;;;-3276.70;90.60;;;;;;5052290;28;20044;-74
2020/12/29 06:06:21;;;;;;;34.95;18.38;;;-3276.70;90.50;;;;;;5055126;28;20100;-74
2020/12/29 06:08:50;;;;;;;33.53;17.95;;;-3276.70;90.40;;;;;;5055261;28;20025;-74
2020/12/29 06:11:22;;;;;;;406.23;186.63;;;0.00;90.50;;;;;;5054432;28;20027;-74
2020/12/29 06:13:48;;;;;;;229.40;96.72;;;-3276.70;90.60;;;;;;5036915;28;20052;-74
2020/12/29 06:16:17;;;;;;;54.42;26.67;;;0.00;91.00;;;;;;5055131;28;20051;-73
2020/12/29 06:18:46;;;;;;;36.85;20.00;;;0.00;90.80;;;;;;5054880;28;20116;-73
2020/12/29 06:21:14;;;;;;;37.50;20.52;;;0.00;90.80;;;;;;5054606;28;20029;-73
2020/12/29 06:23:48;;;;;;;35.83;19.10;;;0.00;90.60;;;;;;5054512;28;20036;-74
2020/12/29 06:26:20;;;;;;;34.80;18.13;;;0.00;90.60;;;;;;5054545;28;20104;-73
2020/12/29 06:28:50;;;;;;;31.33;17.60;;;0.00;90.40;;;;;;5054485;28;20033;-73
2020/12/29 06:31:26;;;;;;;33.17;18.08;;;0.00;90.10;;;;;;5054465;28;20025;-73
2020/12/29 06:33:57;;;;;;;30.13;17.55;;;0.00;90.00;;;;;;5054220;28;20636;-73
2020/12/29 06:36:26;;;;;;;29.92;17.45;;;0.00;90.00;;;;;;5054431;28;20073;-74
2020/12/29 06:38:53;;;;;;;33.30;17.23;;;0.00;90.00;;;;;;5036550;28;20040;-74
2020/12/29 06:41:20;;;;;;;32.63;17.70;;;-3276.70;90.20;;;;;;5054160;28;20483;-73
2020/12/29 06:43:49;;;;;;;35.05;19.23;;;-3276.70;90.10;;;;;;5054038;28;20025;-74
2020/12/29 06:46:16;;;;;;;31.70;16.67;;;-3276.60;90.40;;;;;;5054106;28;20021;-74
2020/12/29 06:48:42;;;;;;;30.27;15.75;;;-3276.60;90.60;;;;;;5054050;28;20024;-74
2020/12/29 06:51:14;;;;;;;32.38;17.00;;;-3276.70;90.40;;;;;;5054105;28;20025;-73
2020/12/29 06:53:43;;;;;;;33.45;18.02;;;-3276.60;90.40;;;;;;5054243;28;20108;-74
2020/12/29 06:56:18;;;;;;;30.60;17.65;;;-3276.60;90.60;;;;;;5054133;28;20025;-74
2020/12/29 06:58:44;;;;;;;35.35;18.17;;;-3276.60;90.70;;;;;;5053620;28;20025;-74
2020/12/29 07:01:21;;;;;;;34.88;17.98;;;-3276.70;91.30;;;;;;5035839;28;20037;-74
2020/12/29 07:03:48;;;;;;;38.25;19.70;;;-3276.60;90.90;;;;;;5035847;28;20025;-75
2020/12/29 07:06:14;;;;;;;38.78;19.83;;;-3276.70;91.70;;;;;;5053769;28;20043;-75
2020/12/29 07:08:40;;;;;;;28.10;15.70;;;-3276.70;91.50;;;;;;5035915;28;20522;-74
2020/12/29 07:11:19;;;;;;;220.13;95.20;;;0.00;91.40;;;;;;5053719;28;20025;-74
2020/12/29 07:13:49;;;;;;;100.35;45.72;;;0.00;90.90;;;;;;5053591;28;20037;-75
2020/12/29 07:16:22;;;;;;;124.38;59.60;;;0.00;90.80;;;;;;5035766;28;20021;-75
2020/12/29 07:18:48;;;;;;;24.00;14.18;;;0.10;90.30;;;;;;5036089;28;20037;-74
2020/12/29 07:21:28;;;;;;;23.63;13.13;;;0.30;89.40;;;;;;5053227;28;20095;-74
2020/12/29 07:23:55;;;;;;;21.20;11.30;;;0.30;88.80;;;;;;5051225;28;20029;-74
2020/12/29 07:26:23;;;;;;;19.33;11.27;;;0.40;89.10;;;;;;5042912;28;20100;-74
2020/12/29 07:28:56;;;;;;;25.23;13.93;;;0.40;88.60;;;;;;5033182;28;20032;-73
2020/12/29 07:31:23;;;;;;;21.08;12.10;;;0.30;89.20;;;;;;5046123;28;20056;-74
2020/12/29 07:33:52;;;;;;;16.88;9.77;;;0.30;89.30;;;;;;5053054;28;20108;-74
2020/12/29 07:36:18;;;;;;;15.48;9.02;;;0.40;89.10;;;;;;5053305;28;20052;-74
2020/12/29 07:38:50;;;;;;;19.35;10.23;;;0.50;88.80;;;;;;5053140;28;20104;-74
2020/12/29 07:41:19;;;;;;;21.83;12.00;;;0.50;88.30;;;;;;5034844;28;20166;-75
2020/12/29 07:43:46;;;;;;;17.60;8.77;;;0.70;88.10;;;;;;5052630;28;20028;-75
2020/12/29 07:46:12;;;;;;;13.02;8.20;;;0.80;88.10;;;;;;5052931;28;20112;-74
2020/12/29 07:48:39;;;;;;;15.65;9.00;;;0.90;87.90;;;;;;5035002;28;20029;-74
2020/12/29 07:51:05;;;;;;;16.13;9.65;;;0.90;87.80;;;;;;5052638;28;20079;-74
2020/12/29 07:53:31;;;;;;;16.98;9.27;;;1.00;87.20;;;;;;5052722;28;20068;-72
2020/12/29 07:55:58;;;;;;;13.27;8.00;;;1.10;86.60;;;;;;5053006;28;20100;-72
2020/12/29 07:58:24;;;;;;;14.15;8.65;;;1.10;86.50;;;;;;5052127;28;20025;-74
2020/12/29 08:00:50;;;;;;;10.23;6.57;;;1.20;86.40;;;;;;5052172;28;20075;-73
2020/12/29 08:03:17;;;;;;;15.85;9.27;;;1.10;86.60;;;;;;5050197;28;20499;-74
2020/12/29 08:05:44;;;;;;;17.63;11.00;;;1.10;86.40;;;;;;5045009;28;20029;-74
2020/12/29 08:08:11;;;;;;;18.52;11.63;;;1.10;86.30;;;;;;5034689;28;20020;-74
2020/12/29 08:10:41;;;;;;;22.42;11.50;;;1.10;86.30;;;;;;5051920;28;20028;-74
2020/12/29 08:13:11;;;;;;;24.30;12.00;;;1.10;86.30;;;;;;5052238;28;20073;-76
2020/12/29 08:15:38;;;;;;;21.15;11.80;;;1.00;86.80;;;;;;5052371;28;20017;-73
2020/12/29 08:18:14;;;;;;;23.55;13.43;;;1.00;86.70;;;;;;5052353;28;20386;-74
2020/12/29 08:20:43;;;;;;;21.42;13.60;;;1.00;87.30;;;;;;5052155;28;20021;-74
2020/12/29 08:23:10;;;;;;;22.40;13.20;;;1.00;87.30;;;;;;5052370;28;20501;-78
2020/12/29 08:25:36;;;;;;;21.33;12.90;;;1.10;86.70;;;;;;5053214;28;20064;-89
2020/12/29 08:28:05;;;;;;;21.90;13.50;;;1.10;87.10;;;;;;5052099;28;20025;-79
2020/12/29 08:30:35;;;;;;;21.95;12.60;;;1.20;87.00;;;;;;5034288;28;20021;-81
2020/12/29 08:33:03;;;;;;;16.98;10.57;;;1.30;86.90;;;;;;5052056;28;20033;-82
2020/12/29 08:35:41;;;;;;;19.27;10.85;;;1.40;86.50;;;;;;5051915;28;20075;-81
2020/12/29 08:38:15;;;;;;;12.48;7.78;;;1.50;86.00;;;;;;5053742;28;20051;-78
2020/12/29 08:40:46;;;;;;;11.82;7.70;;;1.70;85.90;;;;;;5068421;28;20468;-78
2020/12/29 08:43:15;;;;;;;11.00;7.53;;;2.00;85.10;;;;;;5046539;28;20040;-78
2020/12/29 08:45:41;;;;;;;14.82;7.80;;;2.20;85.00;;;;;;5062556;28;20475;-79
2020/12/29 08:48:07;;;;;;;9.15;6.32;;;2.40;83.90;;;;;;5057369;28;20067;-80
2020/12/29 08:50:34;;;;;;;6.00;3.53;;;2.60;83.60;;;;;;5052998;28;20057;-77
2020/12/29 08:53:05;;;;;;;5.88;2.90;;;2.80;82.40;;;;;;5065804;28;20036;-78
2020/12/29 08:55:32;;;;;;;3.13;1.88;;;3.00;81.60;;;;;;5059719;28;20025;-78
2020/12/29 08:58:00;;;;;;;3.20;2.20;;;3.30;80.60;;;;;;5058483;28;20400;-78
2020/12/29 09:00:27;;;;;;;2.65;1.67;;;3.60;79.80;;;;;;5076594;22;20044;-78
2020/12/29 09:02:53;;;;;;;4.25;2.55;;;3.70;78.60;;;;;;5086728;28;20021;-78
2020/12/29 09:05:27;;;;;;;2.58;1.80;;;4.00;78.90;;;;;;5084040;28;20357;-82
2020/12/29 09:07:53;;;;;;;2.85;1.90;;;4.30;76.80;;;;;;5084401;28;20028;-74
2020/12/29 09:10:19;;;;;;;2.00;1.52;;;4.50;76.10;;;;;;5075443;28;20021;-82
2020/12/29 09:12:46;;;;;;;2.00;1.75;;;4.80;75.20;;;;;;5085114;28;20117;-79
2020/12/29 09:15:14;;;;;;;2.83;1.55;;;5.00;74.20;;;;;;5075923;28;20017;-82
2020/12/29 09:17:43;;;;;;;2.42;1.42;;;5.30;72.70;;;;;;5062467;28;20029;-84
2020/12/29 09:20:16;;;;;;;2.47;1.20;;;5.80;71.60;;;;;;5085889;28;20582;-70
2020/12/29 09:22:48;;;;;;;2.92;2.40;;;6.00;70.10;;;;;;5075185;28;20035;-71
2020/12/29 09:25:24;;;;;;;1.67;1.30;;;6.20;69.60;;;;;;5084471;28;20031;-71
2020/12/29 09:27:50;;;;;;;2.75;1.73;;;6.40;68.90;;;;;;5065409;28;20122;-72
2020/12/29 09:30:16;;;;;;;3.72;1.98;;;6.40;68.20;;;;;;5057618;28;20438;-71
2020/12/29 09:32:42;;;;;;;1.65;1.42;;;6.50;68.30;;;;;;5069653;28;20055;-70
2020/12/29 09:35:27;;;;;;;2.00;1.48;;;6.50;67.10;;;;;;5077751;28;20394;-75
2020/12/29 09:37:58;;;;;;;2.67;1.90;;;6.50;67.10;;;;;;5078818;28;20040;-75
2020/12/29 09:40:25;;;;;;;3.60;1.67;;;6.60;67.30;;;;;;5069323;28;20119;-76
2020/12/29 09:42:50;;;;;;;1.95;1.50;;;6.50;67.90;;;;;;5064791;28;20025;-77
2020/12/29 09:45:17;;;;;;;1.50;1.10;;;6.40;68.30;;;;;;5061709;28;20035;-76
2020/12/29 09:47:43;;;;;;;3.13;1.70;;;6.40;69.40;;;;;;5083559;28;20028;-74
2020/12/29 09:50:09;;;;;;;3.53;1.70;;;6.40;69.10;;;;;;5071585;28;20024;-73
2020/12/29 09:52:35;;;;;;;3.15;2.17;;;6.30;68.40;;;;;;5078370;28;20058;-73
2020/12/29 09:55:03;;;;;;;5.25;2.17;;;6.30;71.10;;;;;;5089272;28;20313;-74
2020/12/29 09:57:28;;;;;;;1.80;1.00;;;6.30;69.90;;;;;;5075270;28;20028;-74
2020/12/29 09:59:54;;;;;;;0.98;0.73;;;6.30;68.40;;;;;;5085296;28;20044;-74
2020/12/29 10:02:21;;;;;;;1.92;1.33;;;6.20;68.50;;;;;;5073883;28;20032;-74
2020/12/29 10:04:46;;;;;;;2.30;1.58;;;6.20;69.70;;;;;;5077815;28;20021;-74
2020/12/29 10:07:12;;;;;;;2.78;1.80;;;6.20;69.60;;;;;;5087503;28;20087;-74
2020/12/29 10:09:38;;;;;;;3.17;1.77;;;6.10;69.60;;;;;;5066670;28;20020;-74
2020/12/29 10:12:04;;;;;;;1.67;0.98;;;6.20;70.20;;;;;;5080430;28;20040;-74
2020/12/29 10:14:29;;;;;;;1.88;1.30;;;6.20;69.60;;;;;;5085518;28;20100;-81
2020/12/29 10:16:55;;;;;;;3.35;1.35;;;6.20;69.80;;;;;;5087348;28;20027;-81
2020/12/29 10:19:21;;;;;;;2.55;1.98;;;6.30;69.30;;;;;;5055844;28;20437;-78
2020/12/29 10:21:51;;;;;;;1.60;1.50;;;6.30;69.50;;;;;;5073780;28;20028;-78
2020/12/29 10:24:16;;;;;;;2.58;0.88;;;6.30;68.50;;;;;;5089788;28;20024;-78
2020/12/29 10:26:42;;;;;;;1.75;1.10;;;6.30;68.20;;;;;;5056306;28;20397;-74
2020/12/29 10:29:07;;;;;;;0.98;0.80;;;6.30;67.80;;;;;;5067150;28;20038;-83
2020/12/29 10:31:33;;;;;;;11.60;6.97;;;6.20;68.30;;;;;;5085301;28;20060;-78
2020/12/29 10:34:02;;;;;;;2.78;1.83;;;6.10;67.80;;;;;;5087291;28;20479;-78
2020/12/29 10:36:38;;;;;;;16.95;9.90;;;6.10;68.40;;;;;;5074140;28;20446;-76
2020/12/29 10:39:04;;;;;;;22.80;13.35;;;5.90;68.80;;;;;;5079457;28;20032;-76
2020/12/29 10:41:31;;;;;;;4.32;2.72;;;5.80;69.00;;;;;;5066144;28;20046;-74
2020/12/29 10:43:57;;;;;;;45.10;25.90;;;5.70;68.80;;;;;;5067880;28;20473;-76
2020/12/29 10:46:23;;;;;;;14.35;8.07;;;5.60;71.00;;;;;;5090072;28;20039;-76
2020/12/29 10:48:50;;;;;;;19.25;11.05;;;5.60;70.90;;;;;;5059377;28;20039;-76
2020/12/29 10:51:23;;;;;;;11.98;6.50;;;5.80;70.40;;;;;;5086271;28;20021;-77
2020/12/29 10:53:50;;;;;;;23.27;12.95;;;5.90;70.60;;;;;;5085348;28;20031;-77
2020/12/29 10:56:16;;;;;;;20.77;12.13;;;6.20;70.70;;;;;;5077301;28;20100;-77
2020/12/29 10:58:42;;;;;;;9.57;4.60;;;6.50;70.10;;;;;;5090138;28;20105;-77
2020/12/29 11:01:12;;;;;;;6.80;3.55;;;6.80;67.80;;;;;;5079586;28;20072;-77
2020/12/29 11:03:38;;;;;;;13.43;6.75;;;7.10;66.50;;;;;;5070205;28;20020;-78
2020/12/29 11:06:15;;;;;;;5.00;3.15;;;7.20;65.80;;;;;;5087017;28;20487;-78
2020/12/29 11:08:40;;;;;;;12.75;7.65;;;7.10;66.30;;;;;;5076708;28;20059;-80
2020/12/29 11:11:07;;;;;;;4.35;2.58;;;7.10;66.70;;;;;;5087294;28;20364;-74
2020/12/29 11:13:32;;;;;;;16.95;9.57;;;7.10;67.30;;;;;;5083168;28;20123;-80
2020/12/29 11:15:58;;;;;;;11.68;6.13;;;7.20;67.50;;;;;;5079874;28;20121;-73
2020/12/29 11:18:24;;;;;;;2.92;2.00;;;7.30;67.00;;;;;;5089761;28;20486;-75
2020/12/29 11:20:51;;;;;;;11.77;6.80;;;7.40;66.70;;;;;;5059169;28;20016;-74
2020/12/29 11:23:17;;;;;;;8.77;4.45;;;7.60;66.00;;;;;;5067794;28;20035;-73
2020/12/29 11:25:42;;;;;;;4.75;2.58;;;7.60;65.50;;;;;;5066243;28;20111;-75
2020/12/29 11:28:08;;;;;;;6.43;3.45;;;7.60;65.10;;;;;;5093429;28;20427;-73
2020/12/29 11:30:34;;;;;;;6.07;4.07;;;7.60;65.40;;;;;;5093269;28;20024;-73
2020/12/29 11:33:00;;;;;;;6.00;3.85;;;7.70;65.20;;;;;;5074711;28;20036;-75
2020/12/29 11:35:25;;;;;;;9.48;5.72;;;7.60;64.70;;;;;;5093010;28;20017;-75
2020/12/29 11:37:51;;;;;;;5.32;3.55;;;7.60;65.00;;;;;;5092712;28;20031;-74
2020/12/29 11:40:17;;;;;;;8.38;4.88;;;7.50;65.30;;;;;;5092903;28;20550;-75
2020/12/29 11:42:43;;;;;;;11.73;6.53;;;7.60;65.90;;;;;;5066306;28;20031;-76
2020/12/29 11:45:08;;;;;;;7.68;4.88;;;7.70;65.90;;;;;;5072633;28;20021;-76
2020/12/29 11:47:34;;;;;;;10.68;6.20;;;7.70;65.20;;;;;;5054673;28;20027;-74
2020/12/29 11:49:59;;;;;;;9.18;5.50;;;7.60;64.70;;;;;;5072965;28;20100;-74
2020/12/29 11:52:25;;;;;;;4.93;3.05;;;7.70;65.20;;;;;;5072469;28;20036;-75
2020/12/29 11:54:51;;;;;;;4.18;2.85;;;7.60;65.20;;;;;;5050962;28;20017;-78
2020/12/29 11:57:18;;;;;;;6.82;3.75;;;7.50;64.60;;;;;;5034624;28;20507;-75
2020/12/29 11:59:44;;;;;;;9.93;4.47;;;7.40;65.10;;;;;;5052425;28;20045;-75
2020/12/29 12:02:10;;;;;;;6.93;4.15;;;7.20;65.70;;;;;;5055645;28;20020;-80
2020/12/29 12:04:36;;;;;;;1.73;1.02;;;7.10;66.80;;;;;;5072640;28;20039;-79
2020/12/29 12:07:10;;;;;;;1.95;0.80;;;7.10;65.60;;;;;;5054452;28;20478;-75
2020/12/29 12:09:39;;;;;;;6.50;4.10;;;7.10;65.90;;;;;;5072009;28;20032;-78
2020/12/29 12:12:05;;;;;;;4.78;3.28;;;7.10;67.80;;;;;;5054122;28;20111;-76
2020/12/29 12:14:31;;;;;;;7.45;4.15;;;7.20;67.70;;;;;;5072178;28;20060;-75
2020/12/29 12:16:57;;;;;;;6.13;4.40;;;7.30;67.70;;;;;;5072279;28;20024;-77
2020/12/29 12:19:23;;;;;;;7.30;4.40;;;7.30;67.20;;;;;;5072699;28;20052;-80
2020/12/29 12:21:49;;;;;;;1.40;0.93;;;7.40;67.50;;;;;;5072028;28;20103;-78
2020/12/29 12:24:14;;;;;;;4.15;2.80;;;7.30;65.00;;;;;;5072444;28;20066;-76
2020/12/29 12:26:40;;;;;;;1.55;1.25;;;7.20;66.60;;;;;;5071975;28;20403;-79
2020/12/29 12:29:06;;;;;;;4.93;2.10;;;7.30;66.80;;;;;;5072380;28;20052;-78
2020/12/29 12:31:32;;;;;;;4.20;2.58;;;7.20;65.70;;;;;;5072020;28;20028;-77
2020/12/29 12:33:57;;;;;;;4.72;2.95;;;7.10;66.20;;;;;;5071835;28;20032;-78
2020/12/29 12:36:23;;;;;;;4.43;2.38;;;7.00;67.10;;;;;;5072015;28;20134;-78
2020/12/29 12:38:49;;;;;;;5.43;3.05;;;7.10;67.80;;;;;;5072068;28;20020;-77